Aeroporto :







RITROVATECI SU...

 
LOGIN :

Iscrizione | Disclaimer

   EN    FR    IT 

 









Sommario :    VFR   VFR Marginale   IFR   IFR Intensivo   IFR Molto Intensivo
Visibilità : 
Base nubi : 
>= 8 km
>= 3000ft
5 / 8 km
1000 / 3000 ft
1500m / 5 km
500 / 1000 ft
800 / 1500m
200 / 500 ft
< 800m
< 200 ft
Simboli :   Temporali  Nebbia  Neve Forte  Precipitazioni Forti  Vento > 20 kt






- Altitudine del aeroporto : 6 ft
- Codice IATA : AEY


BIAR - Akureyri

ULTIMO METAR :
  • 062000Z 16006KT 9999 -SN SCT038 OVC059 M04/M05 Q1002 RMK WIND VADLAHEIDI 31506KT

METARs OBSOLETI :
  • 061900Z 17005KT 9999 -SN SCT028 BKN033 OVC042 M04/M04 Q1001 RMK WIND VADLAHEIDI 31506KT
  • 061800Z 23003KT 190V270 7000 -SN SCT014 BKN024 OVC042 M03/M04 Q1001 RMK WIND VADLAHEIDI 35606KT

TAF TAF BIAR
Valido dal 06 a 18 ore il 07 a 18 ore UTC


061606Z 0618/0718 VRB02KT 9999 FEW025 TXM03/0618Z TNM07/0715Z
PROB40
TEMPO 0618/0621 5000 SHSN SCT012 BKN025



MetMap, La meteo Aeronautica in un colpo d'occhio ! - Copyright ORBIFLY Dicembre 2007 - Disclaimer

ORBIFLY MET'MAP TEAM :

Programmazione e sviluppo : Alexandra Zaïnal
Concezione : Baudouin d'Aumeries
Aiuto per la programmazione : Marc-Olivier Méhu
Supporto tecnico e logistico : Manuel Goepfert
Aiuto per la traduzione : Arnaldo La Scala

Contatto : metmap@orbifly.com




FONTI E CREDITI :

   NOAA